Detall de PIREP

Printer-friendly versionPDF version

[2015/11/01 14:07:00]
Flight IATA:CT3100
Pilot Number:012
Company ICAO:CAT
Aircraft Type:MD11/E
PAX:250
Aircraft Registration:PAX
Departing Airport: LIEA
Destination Airport: LEBL
Alternate Airport:LEPA
Online: VATSIM
Route:GINOX UM601 VERSO
Flight Level:F310
No Slew and time accel
No pause
Crash detect
Detect pilot in Cockpit between each 30 and 45 minutes
14:07 Zero fuel Weight: 412830 Lbs, Fuel Weight: 40050 Lbs
14:07 VATSIM:LIEA 011350Z 08012KT 9999 FEW030 21/11 Q1024
14:07 VATSIM:LEBL 011330Z 08017KT 9999 FEW020 SCT055 19/13 Q1025 NOSIG
14:10 Parking Brakes off
14:15 Take-off
14:15 Take off Weight: 451552 Lbs
14:15 Wind: 078º @ 012 Knots Heading: 025º
14:15 POS N40º 38´ 03´´ E008º 17´ 31´´
14:15 Gear Up: 208 Knots
14:15 Flaps:3 at 208 Knots
14:16 Flaps:2 at 199 Knots
14:16 Flaps:3 at 200 Knots
14:16 Flaps:2 at 200 Knots
14:16 Flaps:1 at 200 Knots
14:21 Flaps:0 at 239 Knots
14:28 TOC
14:28 Fuel Weight: 29777 Lb
14:30 Wind:127º@015 Knots Heading: 271º Ground Speed: 501 Knots Altitude 31345 ft
14:44 TOD
14:44 Fuel Weight: 25381 Lb
14:45 Wind:126º@011 Knots Heading: 277º Ground Speed: 458 Knots Altitude 29904 ft
14:54 Flaps:1 at 270 Knots
14:57 Flaps:2 at 248 Knots
14:57 Flaps:3 at 244 Knots
15:00 Wind:116º@023 Knots Heading: 281º Ground Speed: 249 Knots Altitude 4475 ft
15:01 Flaps:4 at 211 Knots
15:01 Flaps:3 at 210 Knots
15:01 Flaps:4 at 210 Knots
15:01 Flaps:5 at 209 Knots
15:01 Flaps:6 at 209 Knots
15:03 Gear Down: 188 Knots
15:03 Flaps:7 at 189 Knots
15:06 Flaps:6 at 190 Knots
15:06 Flaps:7 at 189 Knots
15:07 TouchDown:Rate -277 ft/min Speed: 168 Knots
15:08 VATSIM:LEBL 011430Z 08018KT 9999 FEW020 19/14 Q1025 NOSIG
15:08 Land
15:08 Wind:079º@018 Knots
15:08 Heading: 069º
15:08 Flight Duration: 00:53
15:08 Landing Weight: 433352 Lbs
15:08 POS N41º 18´ 02´´ E002º 05´ 19´´
15:13 Parking brakes on
15:13 Block to Block Duration: 01:03
15:13 Final Fuel: 19854 Lbls
15:13 Spent Fuel: 20196 Lbls
15:13 Flight Length: 335 NM
15:13 TOD Land Length: 122 NM

Exportar CSV

Powered by Drupal - Modified by Danger4k